Union Grove, Wisconsin
Current Conditions -  °F | °C
As of 2:01 PM on Friday 24 Oct 2014 (Local Time) from KENW Reporting Station
Scattered Clouds Scattered Clouds  
Wind Chill: 57°   Ceiling: Unl
Heat Index: 57°   Visibility: 9mi
Dew Point: 52°   Wind: 6mph
Humidity: 83%   Direction: 230°SW
Pressure: 29.99"   Gusts: NA
Location:  42.69°N, 88.05°W
Report Text: KENW 241901Z 23005KT 9SM SCT006 14/11 A2999 RMK AO2 T01390111
Loading
Personal Weather Stations






























Interactive Weather Map
Tropical Storm Tracking
New forecast layout! Learn more

10-Day Weather Forecast

Advertisements
Track Severe Weather on mobile